This is the latest recevied weather packets stored in our database for station/object 7L2IWN-13. If no packets are shown the sender has not sent any weather packets the latest 10 day(s).
| Time | Temp. | Humidity | Pressure | Rain* | Wind** | Luminosity | Snow |
|---|---|---|---|---|---|---|---|
| 1777684221 | 22.22° C | 33% | 1003.8 hPa | 0 mm | - | - | - |
| 1777683501 | 22.22° C | 33% | 1003.8 hPa | 0 mm | - | - | - |
| 1777682781 | 22.22° C | 35% | 1003.6 hPa | 0 mm | - | - | - |
| 1777682062 | 21.67° C | 35% | 1003.2 hPa | 0 mm | - | - | - |
| 1777681344 | 21.67° C | 36% | 1003 hPa | 0 mm | - | - | - |
| 1777680621 | 21.11° C | 37% | 1003 hPa | 0 mm | - | - | - |
| 1777679903 | 21.11° C | 38% | 1002.7 hPa | 0 mm | - | - | - |
| 1777679182 | 20.56° C | 39% | 1003 hPa | 0 mm | - | - | - |
| 1777678462 | 20° C | 39% | 1002.8 hPa | 0 mm | - | - | - |
| 1777677741 | 20° C | 40% | 1002.4 hPa | 0 mm | - | - | - |
| 1777677024 | 20° C | 39% | 1002.5 hPa | 0 mm | - | - | - |
| 1777676303 | 19.44° C | 41% | 1002.1 hPa | 0 mm | - | - | - |
| 1777675582 | 19.44° C | 43% | 1001.9 hPa | 0 mm | - | - | - |
| 1777674861 | 19.44° C | 44% | 1001.8 hPa | 0 mm | - | - | - |
| 1777673424 | 17.22° C | 60% | 1000.9 hPa | 0 mm | - | - | - |
| 1777672702 | 16.67° C | 57% | 1001 hPa | 0 mm | - | - | - |
| 1777671981 | 17.22° C | 49% | 1000.8 hPa | 0 mm | - | - | - |
| 1777671265 | 14.44° C | 78% | 1001.2 hPa | 0 mm | - | - | - |
| 1777670542 | 15° C | 74% | 1000.8 hPa | 0 mm | - | - | - |
| 1777669821 | 15° C | 76% | 1000.5 hPa | 0 mm | - | - | - |
| 1777669103 | 15° C | 68% | 1000.6 hPa | 0 mm | - | - | - |
| 1777668382 | 15.56° C | 61% | 999.8 hPa | 0 mm | - | - | - |
| 1777667662 | 13.33° C | 75% | 1000 hPa | 0 mm | - | - | - |
| 1777666942 | 11.67° C | 84% | 999.7 hPa | 0 mm | - | - | - |
| 1777666221 | 12.22° C | 83% | 999.5 hPa | 0 mm | - | - | - |
* Rain latest hour (hover to see other rain measurements)
** Current wind speed in m/s (hover to see current wind gust speed)